Gratiot, Ohio
Current Conditions -  °F | °C
As of 4:54 AM on Sunday 26 Oct 2014 (Local Time) from KVTA Reporting Station
Clear Clear  
Wind Chill: 44°   Ceiling: Unl
Heat Index: 48°   Visibility: 10mi
Dew Point: 33°   Wind: 9mph
Humidity: 56%   Direction: 310°NW
Pressure: 29.9"   Gusts: NA
Location:  39.95°N, 82.22°W
Report Text: KVTA 260854Z AUTO 31008KT 10SM CLR 09/01 A2990 RMK AO2 SLP123 T00890006 53009
Loading
Personal Weather Stations






























Interactive Weather Map
Tropical Storm Tracking
New forecast layout! Learn more

10-Day Weather Forecast

Advertisements
Track Severe Weather on mobile